Audubon Park, New Jersey
Current Conditions -  °F | °C
As of 7:54 AM on Monday 24 Nov 2014 (Local Time) from KPHL Reporting Station
Broken Clouds Broken Clouds  
Wind Chill: 64°   Ceiling: 2300
Heat Index: 64°   Visibility: 10mi
Dew Point: 60°   Wind: 15mph
Humidity: 87%   Direction: 200°SSW
Pressure: 29.69"   Gusts: NA
Location:  39.891°N, 75.0738°W
Report Text: KPHL 241254Z 20013KT 10SM SCT012 BKN023 18/16 A2969 RMK AO2 SLP054 T01780156 $
Loading
Personal Weather Stations






























Interactive Weather Map New forecast layout! Learn more

10-Day Weather Forecast

Advertisements
Track Severe Weather on mobile